< < Back
Terminal Aerodrome Forecast


Current Version              Previous Versions:   1  2  3  4  5  6  7  8  9  

Terminal Aerodrome Forecast

615
FTUS42 KILM 021122
TAFILM
TAF
KILM 021122Z 0212/0312 21010KT P6SM VCSH SCT020 BKN150
      TEMPO 0212/0216 BKN020
     FM021600 22012KT P6SM VCTS SCT020 SCT050CB BKN250
     FM022100 20010KT P6SM BKN100 OVC250
     FM030500 20009KT P6SM VCTS SCT020 SCT040CB BKN080=

Latest METAR

195
SAUS70 KWBC 030956
MTRILM
METAR KILM 030953Z AUTO 18009KT 10SM SCT023 BKN033 BKN041 22/20 A2985
RMK AO2 LTG DSNT NW RAB20E34 SLP106 P0002 T02170200


USA.gov is the U.S. government's official web portal to all federal, state and local government web resources and services.